createdAt,value
2018-09-28T00:01:35.805Z,17.20
2018-09-28T00:04:04.815Z,16.53
2018-09-28T00:06:34.975Z,16.73
2018-09-28T00:09:06.107Z,17.40
2018-09-28T00:11:35.103Z,16.53
2018-09-28T00:14:06.667Z,17.00
2018-09-28T00:16:35.844Z,15.77
2018-09-28T00:19:05.020Z,17.30
2018-09-28T00:21:34.003Z,16.77
2018-09-28T00:24:03.071Z,17.20
2018-09-28T00:26:32.032Z,18.90
2018-09-28T00:29:00.942Z,15.17
2018-09-28T00:31:29.920Z,20.43
2018-09-28T00:33:58.869Z,19.70
2018-09-28T00:36:27.848Z,22.50
2018-09-28T00:38:56.814Z,22.10
2018-09-28T00:41:25.779Z,21.10
2018-09-28T00:43:54.749Z,22.27
2018-09-28T00:46:23.673Z,22.33
2018-09-28T00:48:52.630Z,24.30
2018-09-28T00:51:21.618Z,23.57
2018-09-28T00:53:50.593Z,22.30
2018-09-28T00:56:19.522Z,25.07
2018-09-28T00:58:48.505Z,23.00
2018-09-28T01:01:17.728Z,22.00
2018-09-28T01:03:46.757Z,21.03
2018-09-28T01:06:15.967Z,23.17
2018-09-28T01:08:44.878Z,21.60
2018-09-28T01:11:14.004Z,22.80
2018-09-28T01:13:42.926Z,22.83
2018-09-28T01:16:12.002Z,24.00
2018-09-28T01:18:40.991Z,25.80
2018-09-28T01:21:10.612Z,25.23
2018-09-28T01:23:39.723Z,25.87
2018-09-28T01:26:09.154Z,27.17
2018-09-28T01:28:38.290Z,26.80
2018-09-28T01:31:07.397Z,26.60
2018-09-28T01:33:36.478Z,26.57
2018-09-28T01:36:05.546Z,27.70
2018-09-28T01:38:34.725Z,28.60
2018-09-28T01:41:03.638Z,27.30
2018-09-28T01:43:32.918Z,29.23
2018-09-28T01:46:01.855Z,26.93
2018-09-28T01:48:30.978Z,25.33
2018-09-28T01:51:00.190Z,25.93
2018-09-28T01:53:29.150Z,27.37
2018-09-28T01:55:58.257Z,26.93
2018-09-28T01:58:27.206Z,26.60
2018-09-28T02:00:56.143Z,24.53
2018-09-28T02:03:25.074Z,24.77
2018-09-28T02:05:54.009Z,24.00
2018-09-28T02:08:23.275Z,27.40
2018-09-28T02:10:52.364Z,23.03
2018-09-28T02:13:21.294Z,26.03
2018-09-28T02:15:50.838Z,25.80
2018-09-28T02:18:19.721Z,25.60
2018-09-28T02:20:48.648Z,25.30
2018-09-28T02:23:17.582Z,24.53
2018-09-28T02:25:46.583Z,25.40
2018-09-28T02:28:15.538Z,24.03
2018-09-28T02:30:44.475Z,26.50
2018-09-28T02:33:13.512Z,27.00
2018-09-28T02:35:42.526Z,25.43
2018-09-28T02:38:11.660Z,25.70
2018-09-28T02:40:40.637Z,26.80
2018-09-28T02:43:09.554Z,27.90
2018-09-28T02:45:38.541Z,26.97
2018-09-28T02:48:07.542Z,26.03
2018-09-28T02:50:36.473Z,30.73
2018-09-28T02:53:05.510Z,26.30
2018-09-28T02:55:34.540Z,26.40
2018-09-28T02:58:03.527Z,27.03
2018-09-28T03:00:32.507Z,27.10
2018-09-28T03:03:01.433Z,28.10
2018-09-28T03:05:30.421Z,29.60
2018-09-28T03:07:59.373Z,28.10
2018-09-28T03:10:28.898Z,28.20
2018-09-28T03:12:58.599Z,33.20
2018-09-28T03:15:27.790Z,29.90
2018-09-28T03:17:56.869Z,33.20
2018-09-28T03:20:26.062Z,31.03
2018-09-28T03:22:54.994Z,31.27
2018-09-28T03:25:24.056Z,31.43
2018-09-28T03:27:53.139Z,31.87
2018-09-28T03:30:22.307Z,31.00
2018-09-28T03:32:51.300Z,32.03
2018-09-28T03:35:20.602Z,29.97
2018-09-28T03:37:49.587Z,27.60
2018-09-28T03:40:18.552Z,27.47
2018-09-28T03:42:47.495Z,26.80
2018-09-28T03:45:16.599Z,25.57
2018-09-28T03:47:47.558Z,29.07
2018-09-28T03:50:16.653Z,32.97
2018-09-28T03:52:45.703Z,32.30
2018-09-28T03:55:14.951Z,32.67
2018-09-28T03:57:44.185Z,31.77
2018-09-28T04:00:13.182Z,33.47
2018-09-28T04:02:42.137Z,31.77
2018-09-28T04:05:11.315Z,32.53
2018-09-28T04:07:40.294Z,34.00
2018-09-28T04:10:09.378Z,35.13
2018-09-28T04:12:38.481Z,37.17
2018-09-28T04:15:07.488Z,32.30
2018-09-28T04:17:36.431Z,29.87
2018-09-28T04:20:05.465Z,31.17
2018-09-28T04:22:34.438Z,28.70
2018-09-28T04:25:03.482Z,30.20
2018-09-28T04:27:32.447Z,31.93
2018-09-28T04:30:01.861Z,30.50
2018-09-28T04:32:30.775Z,32.60
2018-09-28T04:34:59.763Z,32.40
2018-09-28T04:37:29.086Z,30.70
2018-09-28T04:39:58.071Z,34.33
2018-09-28T04:42:27.065Z,30.87
2018-09-28T04:44:56.450Z,29.27
2018-09-28T04:47:25.475Z,31.77
2018-09-28T04:49:54.486Z,31.97
2018-09-28T04:52:23.594Z,31.07
2018-09-28T04:54:52.592Z,32.63
2018-09-28T04:57:21.557Z,31.63
2018-09-28T04:59:52.900Z,31.73
2018-09-28T05:02:21.881Z,30.20
2018-09-28T05:04:50.878Z,32.10
2018-09-28T05:07:19.866Z,33.60
2018-09-28T05:09:49.330Z,36.50
2018-09-28T05:12:18.406Z,37.57
2018-09-28T05:14:47.398Z,42.17
2018-09-28T05:17:16.339Z,45.07
2018-09-28T05:19:45.312Z,44.63
2018-09-28T05:22:14.273Z,43.20
2018-09-28T05:24:44.582Z,44.40
2018-09-28T05:27:13.522Z,42.93
2018-09-28T05:29:42.482Z,44.47
2018-09-28T05:32:11.616Z,43.53
2018-09-28T05:34:40.694Z,42.90
2018-09-28T05:37:09.673Z,45.90
2018-09-28T05:39:38.555Z,43.93
2018-09-28T05:42:07.481Z,44.27
2018-09-28T05:44:36.563Z,47.70
2018-09-28T05:47:05.602Z,45.87
2018-09-28T05:49:35.701Z,44.50
2018-09-28T05:52:04.641Z,46.77
2018-09-28T05:54:33.682Z,46.13
2018-09-28T05:57:02.717Z,43.80
2018-09-28T05:59:37.138Z,43.43
2018-09-28T06:02:11.650Z,44.67
2018-09-28T06:04:46.129Z,44.60
2018-09-28T06:07:15.064Z,44.43
2018-09-28T06:09:44.090Z,45.40
2018-09-28T06:12:13.054Z,45.90
2018-09-28T06:14:42.064Z,45.07
2018-09-28T06:17:11.018Z,46.40
2018-09-28T06:19:40.255Z,47.50
2018-09-28T06:22:09.246Z,49.97
2018-09-28T06:24:38.248Z,46.70
2018-09-28T06:27:07.190Z,48.00
2018-09-28T06:29:36.125Z,45.70
2018-09-28T06:32:05.101Z,43.93
2018-09-28T06:34:34.045Z,43.20
2018-09-28T06:37:03.110Z,38.70
2018-09-28T06:39:33.121Z,35.20
2018-09-28T06:42:02.202Z,30.73
2018-09-28T06:44:31.122Z,29.67
2018-09-28T06:47:00.031Z,29.17
2018-09-28T06:49:29.093Z,28.50
2018-09-28T06:51:58.128Z,26.10
2018-09-28T06:54:27.094Z,25.13
2018-09-28T06:56:56.066Z,22.77
2018-09-28T06:59:25.023Z,22.50
2018-09-28T07:01:53.955Z,21.70
2018-09-28T07:04:22.974Z,19.60
2018-09-28T07:06:51.878Z,22.57
2018-09-28T07:09:21.054Z,20.90
2018-09-28T07:11:49.982Z,19.33
2018-09-28T07:14:18.954Z,20.80
2018-09-28T07:16:48.328Z,19.37
2018-09-28T07:19:17.426Z,22.67
2018-09-28T07:21:46.401Z,19.00
2018-09-28T07:24:15.682Z,19.47
2018-09-28T07:26:44.916Z,18.47
2018-09-28T07:29:14.041Z,18.87
2018-09-28T07:31:42.998Z,17.90
2018-09-28T07:34:11.926Z,17.93
2018-09-28T07:36:41.037Z,18.07
2018-09-28T07:39:11.168Z,15.57
2018-09-28T07:41:40.481Z,14.63
2018-09-28T07:44:09.481Z,13.13
2018-09-28T07:46:38.489Z,12.70
2018-09-28T07:49:07.874Z,11.90
2018-09-28T07:51:36.854Z,12.10
2018-09-28T07:54:05.941Z,9.57
2018-09-28T07:56:35.064Z,9.60
2018-09-28T07:59:04.193Z,7.63
2018-09-28T08:01:33.159Z,4.23
2018-09-28T08:04:02.272Z,4.63
2018-09-28T08:06:31.170Z,4.20
2018-09-28T08:09:00.129Z,3.67
2018-09-28T08:11:29.134Z,4.23
2018-09-28T08:13:58.124Z,4.70
2018-09-28T08:16:27.289Z,3.93
2018-09-28T08:18:56.226Z,4.00
2018-09-28T08:21:25.244Z,3.40
2018-09-28T08:23:54.201Z,6.87
2018-09-28T08:26:23.461Z,4.77
2018-09-28T08:28:52.409Z,3.77
2018-09-28T08:31:21.385Z,4.33
2018-09-28T08:33:50.297Z,4.30
2018-09-28T08:36:19.489Z,4.40
2018-09-28T08:38:48.385Z,4.30
2018-09-28T08:41:17.336Z,4.60
2018-09-28T08:43:46.541Z,4.17
2018-09-28T08:46:15.522Z,3.90
2018-09-28T08:48:44.473Z,3.93
2018-09-28T08:51:13.558Z,4.77
2018-09-28T08:53:42.507Z,4.40
2018-09-28T08:56:11.738Z,3.80
2018-09-28T08:58:40.835Z,4.07
2018-09-28T09:01:09.846Z,4.30
2018-09-28T09:03:38.950Z,4.63
2018-09-28T09:06:08.001Z,3.80
2018-09-28T09:08:37.035Z,3.73
2018-09-28T09:11:05.980Z,5.27
2018-09-28T09:13:34.970Z,3.77
2018-09-28T09:16:04.126Z,4.07
2018-09-28T09:18:33.117Z,4.40
2018-09-28T09:21:02.085Z,3.60
2018-09-28T09:23:31.023Z,5.13
2018-09-28T09:26:00.004Z,4.53
2018-09-28T09:28:29.358Z,3.90
2018-09-28T09:30:58.482Z,3.70
2018-09-28T09:33:27.475Z,3.77
2018-09-28T09:35:56.430Z,3.70
2018-09-28T09:38:25.669Z,4.50
2018-09-28T09:40:54.899Z,4.17
2018-09-28T09:43:23.850Z,4.20
2018-09-28T09:45:52.815Z,3.57
2018-09-28T09:48:22.320Z,4.77
2018-09-28T09:50:51.352Z,3.73
2018-09-28T09:53:20.408Z,3.73
2018-09-28T09:55:49.666Z,4.37
2018-09-28T09:58:18.748Z,4.30
2018-09-28T10:00:53.238Z,3.47
2018-09-28T10:03:27.765Z,5.40
2018-09-28T10:05:56.818Z,4.40
2018-09-28T10:08:25.917Z,3.83
2018-09-28T10:10:54.897Z,4.43
2018-09-28T10:13:23.941Z,4.17
2018-09-28T10:15:53.101Z,3.73
2018-09-28T10:18:22.098Z,6.13
2018-09-28T10:20:51.123Z,4.97
2018-09-28T10:23:20.198Z,5.47
2018-09-28T10:25:49.401Z,6.40
2018-09-28T10:28:18.641Z,7.90
2018-09-28T10:30:47.541Z,5.87
2018-09-28T10:33:16.522Z,4.97
2018-09-28T10:35:45.468Z,6.90
2018-09-28T10:38:14.615Z,4.67
2018-09-28T10:40:43.635Z,5.50
2018-09-28T10:43:12.720Z,5.13
2018-09-28T10:45:41.706Z,3.57
2018-09-28T10:48:10.723Z,3.77
2018-09-28T10:50:39.744Z,3.60
2018-09-28T10:53:08.938Z,4.20
2018-09-28T10:55:37.906Z,4.40
2018-09-28T10:58:07.226Z,3.70
2018-09-28T11:00:36.221Z,3.70
2018-09-28T11:03:05.468Z,4.70
2018-09-28T11:05:34.398Z,3.93
2018-09-28T11:08:03.362Z,4.30
2018-09-28T11:10:32.769Z,4.47
2018-09-28T11:13:01.698Z,3.17
2018-09-28T11:15:30.680Z,5.00
2018-09-28T11:17:59.607Z,3.70
2018-09-28T11:20:28.581Z,4.53
2018-09-28T11:22:57.692Z,3.80
2018-09-28T11:25:26.646Z,4.17
2018-09-28T11:27:55.628Z,4.03
2018-09-28T11:30:24.605Z,3.57
2018-09-28T11:32:53.668Z,3.67
2018-09-28T11:35:22.625Z,4.00
2018-09-28T11:37:51.747Z,3.67
2018-09-28T11:40:20.709Z,3.23
2018-09-28T11:42:49.698Z,3.20
2018-09-28T11:45:18.776Z,3.73
2018-09-28T11:47:47.909Z,3.60
2018-09-28T11:50:16.996Z,2.70
2018-09-28T11:52:46.001Z,3.10
2018-09-28T11:55:14.901Z,3.00
2018-09-28T11:57:45.052Z,3.20
2018-09-28T12:00:14.243Z,3.20
2018-09-28T12:02:43.334Z,2.83
2018-09-28T12:05:12.358Z,3.63
2018-09-28T12:07:41.266Z,2.67
2018-09-28T12:10:10.233Z,3.13
2018-09-28T12:12:39.344Z,2.90
2018-09-28T12:15:08.291Z,3.20
2018-09-28T12:17:37.297Z,3.10
2018-09-28T12:20:07.669Z,3.60
2018-09-28T12:22:36.724Z,3.10
2018-09-28T12:25:05.853Z,3.30
2018-09-28T12:27:34.849Z,3.20
2018-09-28T12:30:03.876Z,2.90
2018-09-28T12:32:33.865Z,3.10
2018-09-28T12:35:02.864Z,2.53
2018-09-28T12:37:31.873Z,3.43
2018-09-28T12:40:00.997Z,3.07
2018-09-28T12:42:29.982Z,2.90
2018-09-28T12:44:59.058Z,3.37
2018-09-28T12:47:28.087Z,2.60
2018-09-28T12:49:57.046Z,3.00
2018-09-28T12:52:26.319Z,3.07
2018-09-28T12:54:55.431Z,2.23
2018-09-28T12:57:24.385Z,2.50
2018-09-28T12:59:53.542Z,2.20
2018-09-28T13:02:22.610Z,3.17
2018-09-28T13:04:51.527Z,2.47
2018-09-28T13:07:20.494Z,2.40
2018-09-28T13:09:49.496Z,2.63
2018-09-28T13:12:18.800Z,2.50
2018-09-28T13:14:47.678Z,2.60
2018-09-28T13:17:16.634Z,2.73
2018-09-28T13:19:45.741Z,2.10
2018-09-28T13:22:15.350Z,2.30
2018-09-28T13:24:44.539Z,2.57
2018-09-28T13:27:15.592Z,2.27
2018-09-28T13:29:44.751Z,3.07
2018-09-28T13:32:13.730Z,3.17
2018-09-28T13:34:42.649Z,3.37
2018-09-28T13:37:12.031Z,3.90
2018-09-28T13:39:41.082Z,2.80
2018-09-28T13:42:09.977Z,2.20
2018-09-28T13:44:39.034Z,2.80
2018-09-28T13:47:07.952Z,2.70
2018-09-28T13:49:37.176Z,3.03
2018-09-28T13:52:06.261Z,2.70
2018-09-28T13:54:35.132Z,3.70
2018-09-28T13:57:04.164Z,3.40
2018-09-28T13:59:33.150Z,3.50
2018-09-28T14:02:02.105Z,3.30
2018-09-28T14:04:31.071Z,3.33
2018-09-28T14:07:00.129Z,2.90
2018-09-28T14:09:29.053Z,3.40
2018-09-28T14:11:58.026Z,3.50
2018-09-28T14:14:27.036Z,2.63
2018-09-28T14:16:55.964Z,2.83
2018-09-28T14:19:25.298Z,2.83
2018-09-28T14:21:54.233Z,2.60
2018-09-28T14:24:23.188Z,2.40
2018-09-28T14:26:52.230Z,2.80
2018-09-28T14:29:21.306Z,3.00
2018-09-28T14:31:50.293Z,2.77
2018-09-28T14:34:19.319Z,3.07
2018-09-28T14:36:49.122Z,2.50
2018-09-28T14:39:18.003Z,2.67
2018-09-28T14:41:46.989Z,2.40
2018-09-28T14:44:15.996Z,3.03
2018-09-28T14:46:44.998Z,2.70
2018-09-28T14:49:13.898Z,2.13
2018-09-28T14:51:42.844Z,3.30
2018-09-28T14:54:11.830Z,2.37
2018-09-28T14:56:40.896Z,2.30
2018-09-28T14:59:09.822Z,3.07
2018-09-28T15:01:38.805Z,2.60
2018-09-28T15:04:07.861Z,3.20
2018-09-28T15:06:37.051Z,2.33
2018-09-28T15:09:06.798Z,2.23
2018-09-28T15:11:35.746Z,2.47
2018-09-28T15:14:04.729Z,2.93
2018-09-28T15:16:33.705Z,2.47
2018-09-28T15:19:02.794Z,3.23
2018-09-28T15:21:31.778Z,2.30
2018-09-28T15:24:00.751Z,2.30
2018-09-28T15:26:29.645Z,2.40
2018-09-28T15:28:58.755Z,2.93
2018-09-28T15:31:27.699Z,2.43
2018-09-28T15:33:56.650Z,2.50
2018-09-28T15:36:25.641Z,2.37
2018-09-28T15:38:54.592Z,2.93
2018-09-28T15:41:23.614Z,2.17
2018-09-28T15:43:52.550Z,2.30
2018-09-28T15:46:21.567Z,2.40
2018-09-28T15:48:50.688Z,2.97
2018-09-28T15:51:19.633Z,2.67
2018-09-28T15:53:48.677Z,2.47
2018-09-28T15:56:17.765Z,2.40
2018-09-28T15:58:46.851Z,3.80
2018-09-28T16:01:16.088Z,2.60
2018-09-28T16:03:45.023Z,3.30
2018-09-28T16:06:14.174Z,2.93
2018-09-28T16:08:43.162Z,2.40
2018-09-28T16:11:12.616Z,3.67
2018-09-28T16:13:41.560Z,3.00
2018-09-28T16:16:10.793Z,2.70
2018-09-28T16:18:40.688Z,2.70
2018-09-28T16:21:09.903Z,3.03
2018-09-28T16:23:39.018Z,2.60
2018-09-28T16:26:08.078Z,2.53
2018-09-28T16:28:37.022Z,2.47
2018-09-28T16:31:06.321Z,3.23
2018-09-28T16:33:35.914Z,2.73
2018-09-28T16:36:04.882Z,2.17
2018-09-28T16:38:33.838Z,3.30
2018-09-28T16:41:02.861Z,2.77
2018-09-28T16:43:31.846Z,2.50
2018-09-28T16:46:00.978Z,2.70
2018-09-28T16:48:29.959Z,2.50
2018-09-28T16:50:58.962Z,2.77
2018-09-28T16:53:27.927Z,3.13
2018-09-28T16:55:56.918Z,3.40
2018-09-28T16:58:26.112Z,2.73
2018-09-28T17:00:55.257Z,2.67
2018-09-28T17:03:24.320Z,2.60
2018-09-28T17:05:53.293Z,3.07
2018-09-28T17:08:23.349Z,2.63
2018-09-28T17:10:52.356Z,3.20
2018-09-28T17:13:21.560Z,3.13
2018-09-28T17:15:50.815Z,2.83
2018-09-28T17:18:19.774Z,3.13
2018-09-28T17:20:48.995Z,3.10
2018-09-28T17:23:17.946Z,3.10
2018-09-28T17:25:46.899Z,3.43
2018-09-28T17:28:17.038Z,2.87
2018-09-28T17:30:45.997Z,3.20
2018-09-28T17:33:15.193Z,2.80
2018-09-28T17:35:44.170Z,2.77
2018-09-28T17:38:13.173Z,2.40
2018-09-28T17:40:42.299Z,2.73
2018-09-28T17:43:11.335Z,2.47
2018-09-28T17:45:40.444Z,2.83
2018-09-28T17:48:09.545Z,2.50
2018-09-28T17:50:38.744Z,2.80
2018-09-28T17:53:07.794Z,2.70
2018-09-28T17:55:38.082Z,2.83
2018-09-28T17:58:07.178Z,2.63
2018-09-28T18:00:36.166Z,3.47
2018-09-28T18:03:05.142Z,2.67
2018-09-28T18:05:34.363Z,2.70
2018-09-28T18:08:03.663Z,2.40
2018-09-28T18:10:33.675Z,2.70
2018-09-28T18:13:02.670Z,2.37
2018-09-28T18:15:31.758Z,2.70
2018-09-28T18:18:00.694Z,2.43
2018-09-28T18:20:29.641Z,2.73
2018-09-28T18:22:58.821Z,2.67
2018-09-28T18:25:27.979Z,2.93
2018-09-28T18:27:57.088Z,3.00
2018-09-28T18:30:26.177Z,3.00
2018-09-28T18:32:55.525Z,3.33
2018-09-28T18:35:24.633Z,3.00
2018-09-28T18:37:53.712Z,3.87
2018-09-28T18:40:22.810Z,3.10
2018-09-28T18:42:51.916Z,2.80
2018-09-28T18:45:20.917Z,2.90
2018-09-28T18:47:49.894Z,3.00
2018-09-28T18:50:19.162Z,3.80
2018-09-28T18:52:48.654Z,4.53
2018-09-28T18:55:17.806Z,4.30
2018-09-28T18:57:46.859Z,4.63
2018-09-28T19:00:15.862Z,4.17
2018-09-28T19:02:45.273Z,5.13
2018-09-28T19:05:14.419Z,5.07
2018-09-28T19:07:43.399Z,5.10
2018-09-28T19:10:12.642Z,4.30
2018-09-28T19:12:41.729Z,4.70
2018-09-28T19:15:11.456Z,4.00
2018-09-28T19:17:40.406Z,3.83
2018-09-28T19:20:09.377Z,3.27
2018-09-28T19:22:39.322Z,3.60
2018-09-28T19:25:08.467Z,4.67
2018-09-28T19:27:37.566Z,3.50
2018-09-28T19:30:07.035Z,4.00
2018-09-28T19:32:36.007Z,5.47
2018-09-28T19:35:04.986Z,3.80
2018-09-28T19:37:34.212Z,3.80
2018-09-28T19:40:03.222Z,3.73
2018-09-28T19:42:32.194Z,4.33
2018-09-28T19:45:01.281Z,4.80
2018-09-28T19:47:30.238Z,4.27
2018-09-28T19:49:59.385Z,4.57
2018-09-28T19:52:28.355Z,5.13
2018-09-28T19:54:57.353Z,6.70
2018-09-28T19:57:26.335Z,6.57
2018-09-28T19:59:55.309Z,5.50
2018-09-28T20:02:24.327Z,6.13
2018-09-28T20:04:53.304Z,6.07
2018-09-28T20:07:22.339Z,6.10
2018-09-28T20:09:51.506Z,5.93
2018-09-28T20:12:21.026Z,4.57
2018-09-28T20:14:49.974Z,4.80
2018-09-28T20:17:19.110Z,5.20
2018-09-28T20:19:48.198Z,3.80
2018-09-28T20:22:17.258Z,4.17
2018-09-28T20:24:47.217Z,3.87
2018-09-28T20:27:16.209Z,4.13
2018-09-28T20:29:45.217Z,4.17
2018-09-28T20:32:14.180Z,4.13
2018-09-28T20:34:43.147Z,4.00
2018-09-28T20:37:12.498Z,4.53
2018-09-28T20:39:41.928Z,4.60
2018-09-28T20:42:10.896Z,5.67
2018-09-28T20:44:40.025Z,4.30
2018-09-28T20:47:09.250Z,4.20
2018-09-28T20:49:38.415Z,4.93
2018-09-28T20:52:07.594Z,4.20
2018-09-28T20:54:36.604Z,4.60
2018-09-28T20:57:05.508Z,5.00
2018-09-28T20:59:34.505Z,4.93
2018-09-28T21:02:03.582Z,4.07
2018-09-28T21:04:32.543Z,4.23
2018-09-28T21:07:01.523Z,4.60
2018-09-28T21:09:30.505Z,4.67
2018-09-28T21:11:59.685Z,4.20
2018-09-28T21:14:28.781Z,4.20
2018-09-28T21:16:57.735Z,4.17
2018-09-28T21:19:26.658Z,4.50
2018-09-28T21:21:56.166Z,5.30
2018-09-28T21:24:25.078Z,4.57
2018-09-28T21:26:54.050Z,4.47
2018-09-28T21:29:23.030Z,5.03
2018-09-28T21:31:52.237Z,5.10
2018-09-28T21:34:21.170Z,4.97
2018-09-28T21:36:50.223Z,4.30
2018-09-28T21:39:19.308Z,4.80
2018-09-28T21:41:48.618Z,3.97
2018-09-28T21:44:18.033Z,4.43
2018-09-28T21:46:47.179Z,4.03
2018-09-28T21:49:16.369Z,4.57
2018-09-28T21:51:45.455Z,4.67
2018-09-28T21:54:14.452Z,4.23
2018-09-28T21:56:43.470Z,5.67
2018-09-28T21:59:12.534Z,4.90
2018-09-28T22:01:41.530Z,3.77
2018-09-28T22:04:10.504Z,5.77
2018-09-28T22:06:39.633Z,4.37
2018-09-28T22:09:08.714Z,4.93
2018-09-28T22:11:37.783Z,4.83
2018-09-28T22:14:06.843Z,4.13
2018-09-28T22:16:35.748Z,5.00
2018-09-28T22:19:05.343Z,4.30
2018-09-28T22:21:34.261Z,5.00
2018-09-28T22:24:03.402Z,4.50
2018-09-28T22:26:32.463Z,5.20
2018-09-28T22:29:01.757Z,4.50
2018-09-28T22:31:30.678Z,5.20
2018-09-28T22:33:59.711Z,4.60
2018-09-28T22:36:28.707Z,5.63
2018-09-28T22:38:57.677Z,4.50
2018-09-28T22:41:26.669Z,5.30
2018-09-28T22:43:55.690Z,5.43
2018-09-28T22:46:24.803Z,5.10
2018-09-28T22:48:54.025Z,5.00
2018-09-28T22:51:22.945Z,4.57
2018-09-28T22:53:52.049Z,5.70
2018-09-28T22:56:21.038Z,4.70
2018-09-28T22:58:50.117Z,4.70
2018-09-28T23:01:19.050Z,5.10
2018-09-28T23:03:48.078Z,5.20
2018-09-28T23:06:17.575Z,4.97
2018-09-28T23:08:46.706Z,5.83
2018-09-28T23:11:15.817Z,4.70
2018-09-28T23:13:44.784Z,4.87
2018-09-28T23:16:13.899Z,4.60
2018-09-28T23:18:42.878Z,5.63
2018-09-28T23:21:11.954Z,5.33
2018-09-28T23:23:41.075Z,5.87
2018-09-28T23:26:10.170Z,5.93
2018-09-28T23:28:39.094Z,5.60
2018-09-28T23:31:08.071Z,5.20
2018-09-28T23:33:37.138Z,4.77
2018-09-28T23:36:06.094Z,5.47
2018-09-28T23:38:35.069Z,5.90
2018-09-28T23:41:04.012Z,5.77
2018-09-28T23:43:32.954Z,6.43
2018-09-28T23:46:01.941Z,6.57
2018-09-28T23:48:31.347Z,5.80
2018-09-28T23:51:00.347Z,4.90
2018-09-28T23:53:29.274Z,6.23
2018-09-28T23:55:58.387Z,4.93
2018-09-28T23:58:27.442Z,4.73
